createdAt,value
2023-05-22T00:02:23.232Z,78.86
2023-05-22T00:04:54.930Z,78.92
2023-05-22T00:07:28.373Z,78.80
2023-05-22T00:09:59.264Z,78.90
2023-05-22T00:12:30.046Z,79.05
2023-05-22T00:15:00.973Z,79.14
2023-05-22T00:17:34.850Z,78.70
2023-05-22T00:20:08.568Z,78.70
2023-05-22T00:22:42.701Z,78.98
2023-05-22T00:25:14.861Z,79.02
2023-05-22T00:27:45.565Z,78.88
2023-05-22T00:30:17.206Z,79.19
2023-05-22T00:32:48.106Z,79.20
2023-05-22T00:35:19.812Z,79.46
2023-05-22T00:37:53.173Z,79.41
2023-05-22T00:40:25.131Z,79.48
2023-05-22T00:42:55.962Z,79.43
2023-05-22T00:45:26.808Z,79.34
2023-05-22T00:47:57.678Z,79.50
2023-05-22T00:50:28.750Z,79.52
2023-05-22T00:53:02.124Z,79.42
2023-05-22T00:55:33.047Z,79.44
2023-05-22T00:58:07.967Z,79.49
2023-05-22T01:00:40.679Z,79.61
2023-05-22T01:03:12.666Z,79.44
2023-05-22T01:05:44.840Z,79.51
2023-05-22T01:08:18.255Z,79.53
2023-05-22T01:10:49.437Z,79.50
2023-05-22T01:13:31.783Z,79.61
2023-05-22T01:16:14.014Z,79.60
2023-05-22T01:18:52.733Z,79.56
2023-05-22T01:21:31.535Z,79.63
2023-05-22T01:24:43.434Z,79.96
2023-05-22T01:27:35.519Z,79.92
2023-05-22T01:30:30.831Z,79.87
2023-05-22T01:33:06.931Z,80.03
2023-05-22T01:35:41.263Z,80.06
2023-05-22T01:38:14.128Z,80.10
2023-05-22T01:40:45.562Z,80.09
2023-05-22T01:43:17.524Z,80.21
2023-05-22T01:45:49.446Z,80.24
2023-05-22T01:48:22.889Z,80.31
2023-05-22T01:50:56.420Z,80.25
2023-05-22T01:53:33.311Z,80.41
2023-05-22T01:56:09.564Z,80.45
2023-05-22T01:58:48.590Z,80.59
2023-05-22T02:01:22.681Z,80.69
2023-05-22T02:04:00.232Z,80.83
2023-05-22T02:06:33.737Z,80.56
2023-05-22T02:09:06.231Z,80.67
2023-05-22T02:11:40.741Z,80.57
2023-05-22T02:14:12.537Z,80.53
2023-05-22T02:16:47.224Z,80.48
2023-05-22T02:19:21.020Z,80.56
2023-05-22T02:22:14.024Z,80.70
2023-05-22T02:24:47.184Z,80.92
2023-05-22T02:27:19.802Z,80.71
2023-05-22T02:29:50.912Z,80.81
2023-05-22T02:32:21.737Z,80.82
2023-05-22T02:34:55.133Z,80.77
2023-05-22T02:37:25.979Z,80.52
2023-05-22T02:39:56.888Z,80.49
2023-05-22T02:42:28.699Z,80.63
2023-05-22T02:44:59.526Z,80.44
2023-05-22T02:47:30.337Z,80.49
2023-05-22T02:50:04.159Z,80.62
2023-05-22T02:52:39.673Z,80.41
2023-05-22T02:55:12.189Z,80.70
2023-05-22T02:57:43.125Z,80.50
2023-05-22T03:00:17.351Z,80.61
2023-05-22T03:02:48.356Z,80.65
2023-05-22T03:05:22.676Z,80.52
2023-05-22T03:07:56.308Z,80.48
2023-05-22T03:10:27.457Z,80.85
2023-05-22T03:12:58.170Z,80.67
2023-05-22T03:15:29.003Z,81.03
2023-05-22T03:18:05.904Z,80.93
2023-05-22T03:20:39.482Z,80.95
2023-05-22T03:23:10.550Z,81.16
2023-05-22T03:25:41.369Z,80.91
2023-05-22T03:28:12.262Z,81.08
2023-05-22T03:30:44.883Z,81.28
2023-05-22T03:33:21.809Z,81.21
2023-05-22T03:35:56.797Z,81.22
2023-05-22T03:38:27.589Z,81.31
2023-05-22T03:40:58.765Z,81.08
2023-05-22T03:43:29.550Z,81.13
2023-05-22T03:46:01.578Z,81.19
2023-05-22T03:48:32.558Z,81.19
2023-05-22T03:51:06.240Z,81.09
2023-05-22T03:53:37.421Z,81.17
2023-05-22T03:56:08.709Z,81.25
2023-05-22T03:58:39.668Z,81.35
2023-05-22T04:01:11.673Z,81.32
2023-05-22T04:03:43.985Z,81.21
2023-05-22T04:06:17.961Z,81.10
2023-05-22T04:08:50.215Z,81.15
2023-05-22T04:11:22.509Z,81.26
2023-05-22T04:13:54.028Z,81.19
2023-05-22T04:16:24.877Z,81.20
2023-05-22T04:18:55.662Z,81.24
2023-05-22T04:21:29.196Z,81.28
2023-05-22T04:23:59.892Z,81.08
2023-05-22T04:26:33.459Z,81.19
2023-05-22T04:29:04.193Z,81.09
2023-05-22T04:31:35.531Z,81.24
2023-05-22T04:34:06.455Z,81.36
2023-05-22T04:36:39.859Z,81.16
2023-05-22T04:39:10.637Z,81.29
2023-05-22T04:41:41.982Z,81.20
2023-05-22T04:44:12.846Z,81.33
2023-05-22T04:46:44.223Z,81.15
2023-05-22T04:49:15.121Z,81.29
2023-05-22T04:51:48.835Z,81.30
2023-05-22T04:54:19.648Z,81.49
2023-05-22T04:56:50.628Z,81.36
2023-05-22T04:59:23.696Z,81.33
2023-05-22T05:01:54.609Z,81.12
2023-05-22T05:04:25.763Z,80.33
2023-05-22T05:07:02.752Z,79.71
2023-05-22T05:09:33.589Z,79.05
2023-05-22T05:12:06.265Z,77.69
2023-05-22T05:14:37.189Z,77.02
2023-05-22T05:17:08.698Z,76.69
2023-05-22T05:19:40.086Z,76.67
2023-05-22T05:22:13.728Z,76.76
2023-05-22T05:24:45.160Z,76.32
2023-05-22T05:27:16.119Z,75.57
2023-05-22T05:29:48.513Z,75.25
2023-05-22T05:32:31.053Z,75.10
2023-05-22T05:35:20.355Z,74.25
2023-05-22T05:37:58.617Z,72.64
2023-05-22T05:40:31.837Z,71.48
2023-05-22T05:43:02.698Z,70.49
2023-05-22T05:45:33.788Z,69.18
2023-05-22T05:48:05.614Z,67.75
2023-05-22T05:50:39.159Z,66.35
2023-05-22T05:53:13.431Z,64.56
2023-05-22T05:55:51.916Z,63.74
2023-05-22T05:58:24.016Z,62.37
2023-05-22T06:01:10.595Z,60.66
2023-05-22T06:03:42.189Z,58.83
2023-05-22T06:06:30.166Z,58.38
2023-05-22T06:09:15.837Z,57.40
2023-05-22T06:12:06.744Z,55.98
2023-05-22T06:14:37.789Z,55.22
2023-05-22T06:17:09.570Z,53.97
2023-05-22T06:19:43.032Z,53.04
2023-05-22T06:22:14.629Z,51.81
2023-05-22T06:24:50.530Z,50.66
2023-05-22T06:27:24.508Z,50.01
2023-05-22T06:29:56.486Z,48.30
2023-05-22T06:32:29.554Z,48.74
2023-05-22T06:35:00.613Z,48.93
2023-05-22T06:37:38.188Z,49.02
2023-05-22T06:40:16.305Z,47.49
2023-05-22T06:42:53.778Z,47.69
2023-05-22T06:45:24.593Z,47.95
2023-05-22T06:48:23.410Z,48.17
2023-05-22T06:51:15.461Z,45.99
2023-05-22T06:53:46.900Z,44.77
2023-05-22T06:56:25.723Z,43.54
2023-05-22T06:59:07.097Z,43.02
2023-05-22T07:02:00.747Z,43.50
2023-05-22T07:04:55.688Z,44.03
2023-05-22T07:07:42.942Z,43.46
2023-05-22T07:10:15.033Z,42.44
2023-05-22T07:12:48.362Z,43.43
2023-05-22T07:15:19.316Z,42.85
2023-05-22T07:17:55.371Z,43.51
2023-05-22T07:20:26.675Z,44.25
2023-05-22T07:23:10.183Z,44.03
2023-05-22T07:25:42.658Z,44.27
2023-05-22T07:28:17.249Z,43.99
2023-05-22T07:31:01.314Z,44.72
2023-05-22T07:33:33.368Z,45.73
2023-05-22T07:36:04.298Z,45.29
2023-05-22T07:38:35.312Z,45.67
2023-05-22T07:41:07.354Z,45.97
2023-05-22T07:43:41.543Z,46.51
2023-05-22T07:46:14.683Z,46.53
2023-05-22T07:48:58.052Z,46.46
2023-05-22T07:51:28.924Z,46.63
2023-05-22T07:56:56.457Z,46.67
2023-05-22T07:59:31.287Z,47.07
2023-05-22T08:02:03.141Z,46.26
2023-05-22T08:04:34.187Z,46.18
2023-05-22T08:07:04.945Z,44.96
2023-05-22T08:09:35.822Z,45.98
2023-05-22T08:12:07.723Z,46.10
2023-05-22T08:14:41.587Z,44.81
2023-05-22T08:17:12.642Z,44.17
2023-05-22T08:19:43.692Z,44.25
2023-05-22T08:22:14.450Z,45.24
2023-05-22T08:24:45.237Z,45.10
2023-05-22T08:27:16.021Z,44.76
2023-05-22T08:29:49.396Z,45.16
2023-05-22T08:32:20.182Z,44.57
2023-05-22T08:34:51.046Z,43.30
2023-05-22T08:37:21.938Z,42.09
2023-05-22T08:39:52.714Z,42.17
2023-05-22T08:42:23.636Z,41.16
2023-05-22T08:45:01.407Z,41.02
2023-05-22T08:47:39.841Z,39.71
2023-05-22T08:50:12.351Z,39.99
2023-05-22T08:52:54.609Z,39.09
2023-05-22T08:55:25.587Z,39.26
2023-05-22T08:57:58.144Z,38.65
2023-05-22T09:00:31.606Z,38.24
2023-05-22T09:03:03.118Z,38.39
2023-05-22T09:05:34.537Z,37.90
2023-05-22T09:08:18.968Z,37.80
2023-05-22T09:10:51.032Z,37.07
2023-05-22T09:13:30.724Z,36.72
2023-05-22T09:16:12.302Z,38.57
2023-05-22T09:18:44.432Z,38.02
2023-05-22T09:21:29.686Z,38.02
2023-05-22T09:24:03.983Z,37.42
2023-05-22T09:26:34.725Z,36.29
2023-05-22T09:29:05.541Z,36.15
2023-05-22T09:31:44.983Z,35.97
2023-05-22T09:34:18.363Z,36.35
2023-05-22T09:36:50.452Z,36.40
2023-05-22T09:39:21.389Z,37.03
2023-05-22T09:41:52.199Z,36.89
2023-05-22T09:44:23.220Z,37.22
2023-05-22T09:46:58.176Z,37.34
2023-05-22T09:49:29.024Z,37.53
2023-05-22T09:52:01.126Z,36.61
2023-05-22T09:54:37.549Z,37.10
2023-05-22T09:57:13.074Z,37.37
2023-05-22T09:59:47.142Z,37.69
2023-05-22T10:02:21.555Z,37.57
2023-05-22T10:04:53.285Z,37.00
2023-05-22T10:07:27.604Z,36.45
2023-05-22T10:10:07.715Z,36.27
2023-05-22T10:12:45.491Z,36.08
2023-05-22T10:15:16.727Z,36.82
2023-05-22T10:17:51.446Z,37.18
2023-05-22T10:20:23.198Z,37.03
2023-05-22T10:22:54.311Z,37.15
2023-05-22T10:25:26.240Z,37.50
2023-05-22T10:27:58.210Z,37.80
2023-05-22T10:30:37.302Z,37.41
2023-05-22T10:33:34.553Z,38.14
2023-05-22T10:36:10.966Z,37.96
2023-05-22T10:38:57.482Z,36.02
2023-05-22T10:41:31.478Z,37.28
2023-05-22T10:44:02.374Z,36.43
2023-05-22T10:46:37.036Z,35.56
2023-05-22T10:49:10.595Z,35.50
2023-05-22T10:51:41.759Z,36.77
2023-05-22T10:54:12.669Z,35.56
2023-05-22T10:56:43.600Z,36.20
2023-05-22T10:59:14.423Z,36.68
2023-05-22T11:01:45.520Z,37.05
2023-05-22T11:04:28.664Z,37.59
2023-05-22T11:07:08.099Z,37.75
2023-05-22T11:09:46.234Z,35.70
2023-05-22T11:12:19.787Z,34.81
2023-05-22T11:14:58.692Z,36.11
2023-05-22T11:17:31.420Z,36.90
2023-05-22T11:20:08.586Z,37.24
2023-05-22T11:22:42.138Z,37.07
2023-05-22T11:25:14.399Z,37.04
2023-05-22T11:27:45.585Z,37.25
2023-05-22T11:30:17.697Z,38.29
2023-05-22T11:32:49.363Z,38.62
2023-05-22T11:35:24.321Z,39.15
2023-05-22T11:37:55.706Z,39.10
2023-05-22T11:40:27.894Z,38.56
2023-05-22T11:42:59.392Z,39.72
2023-05-22T11:45:30.452Z,38.92
2023-05-22T11:48:01.289Z,39.00
2023-05-22T11:50:42.326Z,38.25
2023-05-22T11:53:13.990Z,39.34
2023-05-22T11:55:46.610Z,39.52
2023-05-22T11:58:20.125Z,40.08
2023-05-22T12:00:51.160Z,39.96
2023-05-22T12:03:23.015Z,40.18
2023-05-22T12:05:58.744Z,40.24
2023-05-22T12:08:29.864Z,40.56
2023-05-22T12:11:00.991Z,40.87
2023-05-22T12:13:33.278Z,40.86
2023-05-22T12:16:04.258Z,40.49
2023-05-22T12:18:39.887Z,39.63
2023-05-22T12:21:14.272Z,38.74
2023-05-22T12:23:52.350Z,38.25
2023-05-22T12:26:23.432Z,38.36
2023-05-22T12:28:56.808Z,38.71
2023-05-22T12:31:28.312Z,39.28
2023-05-22T12:33:59.888Z,39.21
2023-05-22T12:36:43.809Z,38.71
2023-05-22T12:39:15.704Z,39.42
2023-05-22T12:41:47.202Z,38.59
2023-05-22T12:44:19.396Z,38.73
2023-05-22T12:46:50.686Z,39.86
2023-05-22T12:49:21.747Z,40.10
2023-05-22T12:51:55.193Z,39.64
2023-05-22T12:54:26.192Z,39.18
2023-05-22T12:56:57.253Z,38.63
2023-05-22T12:59:28.302Z,37.63
2023-05-22T13:02:02.411Z,38.61
2023-05-22T13:04:33.625Z,38.12
2023-05-22T13:07:07.361Z,38.39
2023-05-22T13:09:39.080Z,38.34
2023-05-22T13:12:11.591Z,38.62
2023-05-22T13:14:42.603Z,38.36
2023-05-22T13:17:13.548Z,38.53
2023-05-22T13:19:44.467Z,38.72
2023-05-22T13:22:18.656Z,38.67
2023-05-22T13:24:49.849Z,39.35
2023-05-22T13:27:21.370Z,40.50
2023-05-22T13:29:52.550Z,41.29
2023-05-22T13:32:23.982Z,41.49
2023-05-22T13:34:54.937Z,41.25
2023-05-22T13:37:28.687Z,41.46
2023-05-22T13:39:59.871Z,40.99
2023-05-22T13:42:30.850Z,41.71
2023-05-22T13:45:04.147Z,42.12
2023-05-22T13:47:36.972Z,41.56
2023-05-22T13:50:08.826Z,42.23
2023-05-22T13:52:42.435Z,45.59
2023-05-22T13:55:14.066Z,48.30
2023-05-22T13:57:45.049Z,48.87
2023-05-22T14:00:17.984Z,51.84
2023-05-22T14:02:50.406Z,52.87
2023-05-22T14:05:21.457Z,54.99
2023-05-22T14:07:57.154Z,56.31
2023-05-22T14:10:28.111Z,57.21
2023-05-22T14:12:59.264Z,57.30
2023-05-22T14:15:30.281Z,58.10
2023-05-22T14:18:01.034Z,58.65
2023-05-22T14:20:32.100Z,58.46
2023-05-22T14:23:07.154Z,58.54
2023-05-22T14:25:38.228Z,58.83
2023-05-22T14:28:09.091Z,59.23
2023-05-22T14:30:41.079Z,59.73
2023-05-22T14:33:12.171Z,60.85
2023-05-22T14:35:43.204Z,60.97
2023-05-22T14:38:16.924Z,62.68
2023-05-22T14:40:47.754Z,64.00
2023-05-22T14:43:18.794Z,64.06
2023-05-22T14:45:49.663Z,65.75
2023-05-22T14:48:23.073Z,66.17
2023-05-22T14:50:53.971Z,66.71
2023-05-22T14:53:27.892Z,67.15
2023-05-22T14:55:58.778Z,67.14
2023-05-22T14:58:29.665Z,68.51
2023-05-22T15:01:00.561Z,69.42
2023-05-22T15:03:31.416Z,69.40
2023-05-22T15:06:02.315Z,69.95
2023-05-22T15:08:36.963Z,70.60
2023-05-22T15:11:08.000Z,71.06
2023-05-22T15:13:39.036Z,71.27
2023-05-22T15:16:12.172Z,71.02
2023-05-22T15:18:43.552Z,71.21
2023-05-22T15:21:14.612Z,71.22
2023-05-22T15:23:48.432Z,71.56
2023-05-22T15:26:19.452Z,71.98
2023-05-22T15:28:50.351Z,72.97
2023-05-22T15:31:21.408Z,73.30
2023-05-22T15:33:52.377Z,72.74
2023-05-22T15:36:23.522Z,72.30
2023-05-22T15:38:57.122Z,72.19
2023-05-22T15:41:27.929Z,72.14
2023-05-22T15:43:59.209Z,72.41
2023-05-22T15:46:29.959Z,72.74
2023-05-22T15:49:00.786Z,72.69
2023-05-22T15:51:33.111Z,73.08
2023-05-22T15:54:09.748Z,72.96
2023-05-22T15:56:40.684Z,73.48
2023-05-22T15:59:11.598Z,73.29
2023-05-22T16:01:42.407Z,72.76
2023-05-22T16:04:13.277Z,72.95
2023-05-22T16:06:44.094Z,73.05
2023-05-22T16:09:19.726Z,73.18
2023-05-22T16:11:50.712Z,73.74
2023-05-22T16:14:21.698Z,74.29
2023-05-22T16:16:52.617Z,74.22
2023-05-22T16:19:23.572Z,74.20
2023-05-22T16:21:54.437Z,74.31
2023-05-22T16:24:27.998Z,74.40
2023-05-22T16:27:01.018Z,74.12
2023-05-22T16:29:32.819Z,73.71
2023-05-22T16:32:04.073Z,73.84
2023-05-22T16:34:36.890Z,74.34
2023-05-22T16:37:09.276Z,74.63
2023-05-22T16:39:42.938Z,75.10
2023-05-22T16:42:13.825Z,75.57
2023-05-22T16:44:44.718Z,75.57
2023-05-22T16:47:15.627Z,75.71
2023-05-22T16:49:46.521Z,75.66
2023-05-22T16:52:18.355Z,76.08
2023-05-22T16:54:51.926Z,75.92
2023-05-22T16:57:22.889Z,76.07
2023-05-22T16:59:54.529Z,76.20
2023-05-22T17:02:26.725Z,76.44
2023-05-22T17:04:57.674Z,76.55
2023-05-22T17:07:28.566Z,76.59
2023-05-22T17:10:02.069Z,76.76
2023-05-22T17:12:36.266Z,76.79
2023-05-22T17:15:08.333Z,76.58
2023-05-22T17:17:39.538Z,76.62
2023-05-22T17:20:11.805Z,76.53
2023-05-22T17:22:42.583Z,76.47
2023-05-22T17:25:16.894Z,76.23
2023-05-22T17:27:47.803Z,77.09
2023-05-22T17:30:18.899Z,77.06
2023-05-22T17:32:50.456Z,77.27
2023-05-22T17:35:21.513Z,77.27
2023-05-22T17:37:52.604Z,77.46
2023-05-22T17:40:36.554Z,77.36
2023-05-22T17:43:15.564Z,77.90
2023-05-22T17:45:50.372Z,77.12
2023-05-22T17:48:24.021Z,77.25
2023-05-22T17:50:55.095Z,77.21
2023-05-22T17:53:26.823Z,77.28
2023-05-22T17:56:00.348Z,77.38
2023-05-22T17:58:31.529Z,77.43
2023-05-22T18:01:02.584Z,77.79
2023-05-22T18:03:34.394Z,77.63
2023-05-22T18:06:05.327Z,77.50
2023-05-22T18:08:36.211Z,77.73
2023-05-22T18:11:09.761Z,78.26
2023-05-22T18:13:40.497Z,78.53
2023-05-22T18:16:11.698Z,78.70
2023-05-22T18:18:42.576Z,78.89
2023-05-22T18:21:13.503Z,78.82
2023-05-22T18:23:44.330Z,79.07
2023-05-22T18:26:17.792Z,79.24
2023-05-22T18:28:48.731Z,79.02
2023-05-22T18:31:19.862Z,79.04
2023-05-22T18:33:50.725Z,78.98
2023-05-22T18:36:21.941Z,78.94
2023-05-22T18:38:52.760Z,78.89
2023-05-22T18:41:29.418Z,79.22
2023-05-22T18:44:00.205Z,79.24
2023-05-22T18:46:31.619Z,79.25
2023-05-22T18:49:02.436Z,79.43
2023-05-22T18:51:33.744Z,79.44
2023-05-22T18:54:04.575Z,79.37
2023-05-22T18:56:39.156Z,79.44
2023-05-22T18:59:10.119Z,79.44
2023-05-22T19:01:41.079Z,79.33
2023-05-22T19:04:12.148Z,79.48
2023-05-22T19:06:43.526Z,79.29
2023-05-22T19:09:14.651Z,79.72
2023-05-22T19:11:48.170Z,79.47
2023-05-22T19:14:19.033Z,79.48
2023-05-22T19:16:49.920Z,79.59
2023-05-22T19:19:20.944Z,79.52
2023-05-22T19:21:54.857Z,79.74
2023-05-22T19:24:25.864Z,79.64
2023-05-22T19:26:59.292Z,79.86
2023-05-22T19:29:30.384Z,79.92
2023-05-22T19:32:01.220Z,80.22
2023-05-22T19:34:32.116Z,80.26
2023-05-22T19:37:02.955Z,80.04
2023-05-22T19:39:33.898Z,80.13
2023-05-22T19:42:09.875Z,80.16
2023-05-22T19:44:40.721Z,80.33
2023-05-22T19:47:11.718Z,80.23
2023-05-22T19:49:42.603Z,80.45
2023-05-22T19:52:13.523Z,80.68
2023-05-22T19:54:44.365Z,80.51
2023-05-22T19:57:17.928Z,80.63
2023-05-22T19:59:48.988Z,80.65
2023-05-22T20:02:20.131Z,80.71
2023-05-22T20:04:52.333Z,80.81
2023-05-22T20:07:23.093Z,81.02
2023-05-22T20:09:53.862Z,80.88
2023-05-22T20:12:27.194Z,81.17
2023-05-22T20:14:58.837Z,81.04
2023-05-22T20:17:29.783Z,81.15
2023-05-22T20:20:01.647Z,81.32
2023-05-22T20:22:33.886Z,81.40
2023-05-22T20:25:05.477Z,81.44
2023-05-22T20:27:39.207Z,81.47
2023-05-22T20:30:11.888Z,81.43
2023-05-22T20:32:43.677Z,81.34
2023-05-22T20:35:14.651Z,81.41
2023-05-22T20:37:46.512Z,81.35
2023-05-22T20:40:17.964Z,81.36
2023-05-22T20:42:53.566Z,81.59
2023-05-22T20:45:24.409Z,81.58
2023-05-22T20:47:55.211Z,81.40
2023-05-22T20:50:26.243Z,81.72
2023-05-22T20:52:57.423Z,81.65
2023-05-22T20:55:28.156Z,81.77
2023-05-22T20:58:01.632Z,81.80
2023-05-22T21:00:32.499Z,81.75
2023-05-22T21:03:03.658Z,81.74
2023-05-22T21:05:34.535Z,81.87
2023-05-22T21:08:05.461Z,82.04
2023-05-22T21:10:36.294Z,81.92
2023-05-22T21:13:09.685Z,81.92
2023-05-22T21:15:40.597Z,81.96
2023-05-22T21:18:12.353Z,81.91
2023-05-22T21:20:43.531Z,82.03
2023-05-22T21:23:14.643Z,82.05
2023-05-22T21:25:45.516Z,82.09
2023-05-22T21:28:18.907Z,82.20
2023-05-22T21:30:49.700Z,82.44
2023-05-22T21:33:20.944Z,82.36
2023-05-22T21:35:51.722Z,82.48
2023-05-22T21:38:22.587Z,82.68
2023-05-22T21:40:53.363Z,82.66
2023-05-22T21:43:26.923Z,82.96
2023-05-22T21:45:57.809Z,82.89
2023-05-22T21:48:28.685Z,82.83
2023-05-22T21:50:59.432Z,82.97
2023-05-22T21:53:30.347Z,82.98
2023-05-22T21:56:01.142Z,83.27
2023-05-22T21:58:34.675Z,83.09
2023-05-22T22:01:05.427Z,83.11
2023-05-22T22:03:36.297Z,82.97
2023-05-22T22:06:07.541Z,82.99
2023-05-22T22:08:38.343Z,83.21
2023-05-22T22:11:09.235Z,83.09
2023-05-22T22:13:42.751Z,83.27
2023-05-22T22:16:13.624Z,83.22
2023-05-22T22:18:44.524Z,83.25
2023-05-22T22:21:15.808Z,83.15
2023-05-22T22:23:46.564Z,83.34
2023-05-22T22:26:17.475Z,83.28
2023-05-22T22:28:50.973Z,83.50
2023-05-22T22:31:22.049Z,83.39
2023-05-22T22:33:52.872Z,83.47
2023-05-22T22:36:23.694Z,83.36
2023-05-22T22:38:54.740Z,83.38
2023-05-22T22:41:25.752Z,83.65
2023-05-22T22:43:59.199Z,83.63
2023-05-22T22:46:29.985Z,83.56
2023-05-22T22:49:02.111Z,83.30
2023-05-22T22:51:33.281Z,83.49
2023-05-22T22:54:04.161Z,83.54
2023-05-22T22:56:35.065Z,83.43
2023-05-22T22:59:08.664Z,83.45
2023-05-22T23:01:39.374Z,83.46
2023-05-22T23:04:10.329Z,83.25
2023-05-22T23:06:42.137Z,83.31
2023-05-22T23:09:13.092Z,83.14
2023-05-22T23:11:43.894Z,83.15
2023-05-22T23:14:18.151Z,83.51
2023-05-22T23:16:49.062Z,83.55
2023-05-22T23:19:20.080Z,83.50
2023-05-22T23:21:52.190Z,83.73
2023-05-22T23:24:22.990Z,83.89
2023-05-22T23:26:53.748Z,83.95
2023-05-22T23:29:27.303Z,83.86
2023-05-22T23:31:58.167Z,83.80
2023-05-22T23:34:29.102Z,83.88
2023-05-22T23:36:59.845Z,83.51
2023-05-22T23:39:30.853Z,83.78
2023-05-22T23:42:02.460Z,84.10
2023-05-22T23:44:36.048Z,83.89
2023-05-22T23:47:07.181Z,83.89
2023-05-22T23:49:38.085Z,83.94
2023-05-22T23:52:09.380Z,84.04
2023-05-22T23:54:40.168Z,83.99
2023-05-22T23:57:11.247Z,84.14
2023-05-22T23:59:46.801Z,84.00
